sensor_id;sensor_type;location;lat;lon;timestamp;P1;durP1;ratioP1;P2;durP2;ratioP2
53644;SDS011;39547;45.554;12.068;2023-05-07T00:02:17;22.23;;;12.77;;
53644;SDS011;39547;45.554;12.068;2023-05-07T00:08:18;23.10;;;13.40;;
53644;SDS011;39547;45.554;12.068;2023-05-07T00:14:21;23.13;;;13.57;;
53644;SDS011;39547;45.554;12.068;2023-05-07T00:20:22;21.00;;;12.27;;
53644;SDS011;39547;45.554;12.068;2023-05-07T00:26:24;22.80;;;12.93;;
53644;SDS011;39547;45.554;12.068;2023-05-07T00:32:26;24.75;;;13.43;;
53644;SDS011;39547;45.554;12.068;2023-05-07T00:38:27;21.40;;;11.88;;
53644;SDS011;39547;45.554;12.068;2023-05-07T00:44:29;20.73;;;11.15;;
53644;SDS011;39547;45.554;12.068;2023-05-07T00:50:31;21.83;;;12.43;;
53644;SDS011;39547;45.554;12.068;2023-05-07T00:56:34;17.70;;;9.80;;
53644;SDS011;39547;45.554;12.068;2023-05-07T01:02:36;19.42;;;10.98;;
53644;SDS011;39547;45.554;12.068;2023-05-07T01:08:37;19.58;;;10.93;;
53644;SDS011;39547;45.554;12.068;2023-05-07T01:14:40;20.92;;;12.13;;
53644;SDS011;39547;45.554;12.068;2023-05-07T01:20:42;20.35;;;10.80;;
53644;SDS011;39547;45.554;12.068;2023-05-07T01:26:44;22.88;;;12.68;;
53644;SDS011;39547;45.554;12.068;2023-05-07T01:32:53;24.55;;;14.90;;
53644;SDS011;39547;45.554;12.068;2023-05-07T01:39:00;23.15;;;12.80;;
53644;SDS011;39547;45.554;12.068;2023-05-07T01:45:03;24.15;;;14.27;;
53644;SDS011;39547;45.554;12.068;2023-05-07T01:51:05;22.25;;;13.80;;
53644;SDS011;39547;45.554;12.068;2023-05-07T01:57:07;22.02;;;12.75;;
53644;SDS011;39547;45.554;12.068;2023-05-07T02:03:08;22.38;;;12.93;;
53644;SDS011;39547;45.554;12.068;2023-05-07T02:09:20;24.60;;;14.52;;
53644;SDS011;39547;45.554;12.068;2023-05-07T02:15:24;25.37;;;15.07;;
53644;SDS011;39547;45.554;12.068;2023-05-07T02:21:26;24.17;;;13.90;;
53644;SDS011;39547;45.554;12.068;2023-05-07T02:27:27;25.17;;;15.45;;
53644;SDS011;39547;45.554;12.068;2023-05-07T02:33:29;26.35;;;15.68;;
53644;SDS011;39547;45.554;12.068;2023-05-07T02:39:32;23.83;;;14.35;;
53644;SDS011;39547;45.554;12.068;2023-05-07T02:45:33;26.88;;;17.20;;
53644;SDS011;39547;45.554;12.068;2023-05-07T02:51:36;22.98;;;14.15;;
53644;SDS011;39547;45.554;12.068;2023-05-07T02:57:43;25.30;;;15.50;;
53644;SDS011;39547;45.554;12.068;2023-05-07T03:03:45;24.15;;;14.80;;
53644;SDS011;39547;45.554;12.068;2023-05-07T03:09:47;23.42;;;14.30;;
53644;SDS011;39547;45.554;12.068;2023-05-07T03:15:49;24.10;;;15.18;;
53644;SDS011;39547;45.554;12.068;2023-05-07T03:21:50;23.85;;;14.43;;
53644;SDS011;39547;45.554;12.068;2023-05-07T03:27:52;29.17;;;17.95;;
53644;SDS011;39547;45.554;12.068;2023-05-07T03:33:57;25.40;;;16.10;;
53644;SDS011;39547;45.554;12.068;2023-05-07T03:39:59;25.92;;;15.70;;
53644;SDS011;39547;45.554;12.068;2023-05-07T03:46:01;24.52;;;14.48;;
53644;SDS011;39547;45.554;12.068;2023-05-07T03:52:03;25.15;;;15.18;;
53644;SDS011;39547;45.554;12.068;2023-05-07T03:58:06;24.40;;;14.38;;
53644;SDS011;39547;45.554;12.068;2023-05-07T04:04:08;24.20;;;14.32;;
53644;SDS011;39547;45.554;12.068;2023-05-07T04:10:11;23.52;;;14.48;;
53644;SDS011;39547;45.554;12.068;2023-05-07T04:16:15;26.63;;;16.40;;
53644;SDS011;39547;45.554;12.068;2023-05-07T04:22:17;25.27;;;15.75;;
53644;SDS011;39547;45.554;12.068;2023-05-07T04:28:18;23.58;;;14.15;;
53644;SDS011;39547;45.554;12.068;2023-05-07T04:34:20;24.33;;;14.43;;
53644;SDS011;39547;45.554;12.068;2023-05-07T04:40:22;23.52;;;14.15;;
53644;SDS011;39547;45.554;12.068;2023-05-07T04:46:24;25.63;;;14.02;;
53644;SDS011;39547;45.554;12.068;2023-05-07T04:52:27;29.60;;;16.40;;
53644;SDS011;39547;45.554;12.068;2023-05-07T04:58:28;26.10;;;15.73;;
53644;SDS011;39547;45.554;12.068;2023-05-07T05:04:32;21.13;;;12.40;;
53644;SDS011;39547;45.554;12.068;2023-05-07T05:10:34;25.30;;;15.45;;
53644;SDS011;39547;45.554;12.068;2023-05-07T05:16:35;24.92;;;14.75;;
53644;SDS011;39547;45.554;12.068;2023-05-07T05:22:37;24.02;;;14.52;;
53644;SDS011;39547;45.554;12.068;2023-05-07T05:28:39;21.50;;;13.25;;
53644;SDS011;39547;45.554;12.068;2023-05-07T05:34:41;22.58;;;12.73;;
53644;SDS011;39547;45.554;12.068;2023-05-07T05:40:42;20.90;;;12.35;;
53644;SDS011;39547;45.554;12.068;2023-05-07T05:46:44;20.60;;;11.70;;
53644;SDS011;39547;45.554;12.068;2023-05-07T05:52:45;18.95;;;11.20;;
53644;SDS011;39547;45.554;12.068;2023-05-07T05:58:47;20.27;;;11.63;;
53644;SDS011;39547;45.554;12.068;2023-05-07T06:04:49;19.13;;;11.15;;
53644;SDS011;39547;45.554;12.068;2023-05-07T06:16:55;20.02;;;10.75;;
53644;SDS011;39547;45.554;12.068;2023-05-07T06:22:56;19.30;;;11.45;;
53644;SDS011;39547;45.554;12.068;2023-05-07T06:28:58;18.83;;;10.02;;
53644;SDS011;39547;45.554;12.068;2023-05-07T06:34:59;21.80;;;12.77;;
53644;SDS011;39547;45.554;12.068;2023-05-07T06:41:01;21.55;;;11.82;;
53644;SDS011;39547;45.554;12.068;2023-05-07T06:47:03;19.92;;;11.23;;
53644;SDS011;39547;45.554;12.068;2023-05-07T06:53:06;19.83;;;11.90;;
53644;SDS011;39547;45.554;12.068;2023-05-07T06:59:08;18.65;;;10.82;;
53644;SDS011;39547;45.554;12.068;2023-05-07T07:05:13;18.73;;;10.50;;
53644;SDS011;39547;45.554;12.068;2023-05-07T07:11:15;25.10;;;14.50;;
53644;SDS011;39547;45.554;12.068;2023-05-07T07:17:17;23.08;;;14.38;;
53644;SDS011;39547;45.554;12.068;2023-05-07T07:23:18;20.38;;;12.18;;
53644;SDS011;39547;45.554;12.068;2023-05-07T07:29:20;18.42;;;10.60;;
53644;SDS011;39547;45.554;12.068;2023-05-07T07:35:22;19.88;;;10.60;;
53644;SDS011;39547;45.554;12.068;2023-05-07T07:41:24;17.40;;;9.45;;
53644;SDS011;39547;45.554;12.068;2023-05-07T07:47:26;16.05;;;8.85;;
53644;SDS011;39547;45.554;12.068;2023-05-07T07:53:28;15.40;;;8.50;;
53644;SDS011;39547;45.554;12.068;2023-05-07T07:59:30;17.02;;;9.18;;
53644;SDS011;39547;45.554;12.068;2023-05-07T08:05:32;14.55;;;7.13;;
53644;SDS011;39547;45.554;12.068;2023-05-07T08:11:34;14.95;;;7.82;;
53644;SDS011;39547;45.554;12.068;2023-05-07T08:17:37;17.17;;;8.60;;
53644;SDS011;39547;45.554;12.068;2023-05-07T08:23:38;15.70;;;8.43;;
53644;SDS011;39547;45.554;12.068;2023-05-07T08:29:40;18.13;;;8.50;;
53644;SDS011;39547;45.554;12.068;2023-05-07T08:35:42;16.63;;;6.72;;
53644;SDS011;39547;45.554;12.068;2023-05-07T08:41:46;14.27;;;5.63;;
53644;SDS011;39547;45.554;12.068;2023-05-07T08:47:53;12.60;;;5.80;;
53644;SDS011;39547;45.554;12.068;2023-05-07T08:54:03;13.45;;;6.00;;
53644;SDS011;39547;45.554;12.068;2023-05-07T09:00:07;12.70;;;5.30;;
53644;SDS011;39547;45.554;12.068;2023-05-07T09:06:12;12.65;;;5.10;;
53644;SDS011;39547;45.554;12.068;2023-05-07T09:12:13;13.55;;;5.13;;
53644;SDS011;39547;45.554;12.068;2023-05-07T09:18:16;12.20;;;5.10;;
53644;SDS011;39547;45.554;12.068;2023-05-07T09:24:18;12.40;;;5.10;;
53644;SDS011;39547;45.554;12.068;2023-05-07T09:30:20;12.30;;;5.30;;
53644;SDS011;39547;45.554;12.068;2023-05-07T09:36:22;11.90;;;4.95;;
53644;SDS011;39547;45.554;12.068;2023-05-07T09:42:25;12.18;;;5.30;;
53644;SDS011;39547;45.554;12.068;2023-05-07T09:48:37;12.63;;;5.10;;
53644;SDS011;39547;45.554;12.068;2023-05-07T09:54:43;13.13;;;5.70;;
53644;SDS011;39547;45.554;12.068;2023-05-07T10:00:46;11.95;;;5.20;;
53644;SDS011;39547;45.554;12.068;2023-05-07T10:06:50;11.90;;;4.88;;
53644;SDS011;39547;45.554;12.068;2023-05-07T10:12:52;12.55;;;4.70;;
53644;SDS011;39547;45.554;12.068;2023-05-07T10:19:03;12.38;;;4.70;;
53644;SDS011;39547;45.554;12.068;2023-05-07T10:25:28;12.10;;;5.00;;
53644;SDS011;39547;45.554;12.068;2023-05-07T10:37:48;11.95;;;5.03;;
53644;SDS011;39547;45.554;12.068;2023-05-07T10:43:50;12.20;;;4.80;;
53644;SDS011;39547;45.554;12.068;2023-05-07T11:03:04;12.75;;;5.40;;
53644;SDS011;39547;45.554;12.068;2023-05-07T11:09:08;13.40;;;5.97;;
53644;SDS011;39547;45.554;12.068;2023-05-07T11:15:35;12.82;;;6.13;;
53644;SDS011;39547;45.554;12.068;2023-05-07T11:21:44;13.55;;;6.35;;
53644;SDS011;39547;45.554;12.068;2023-05-07T11:27:53;12.77;;;6.03;;
53644;SDS011;39547;45.554;12.068;2023-05-07T11:33:55;13.15;;;6.63;;
53644;SDS011;39547;45.554;12.068;2023-05-07T11:40:03;13.73;;;6.65;;
53644;SDS011;39547;45.554;12.068;2023-05-07T11:46:10;14.07;;;6.93;;
53644;SDS011;39547;45.554;12.068;2023-05-07T11:52:12;14.55;;;7.43;;
53644;SDS011;39547;45.554;12.068;2023-05-07T11:58:20;16.08;;;9.13;;
53644;SDS011;39547;45.554;12.068;2023-05-07T12:04:22;15.50;;;7.15;;
53644;SDS011;39547;45.554;12.068;2023-05-07T12:10:24;18.33;;;10.30;;
53644;SDS011;39547;45.554;12.068;2023-05-07T12:16:25;16.95;;;10.07;;
53644;SDS011;39547;45.554;12.068;2023-05-07T12:22:28;14.33;;;7.27;;
53644;SDS011;39547;45.554;12.068;2023-05-07T12:28:29;15.07;;;7.50;;
53644;SDS011;39547;45.554;12.068;2023-05-07T12:34:32;13.85;;;7.47;;
53644;SDS011;39547;45.554;12.068;2023-05-07T12:40:40;15.25;;;7.95;;
53644;SDS011;39547;45.554;12.068;2023-05-07T12:46:46;16.43;;;9.60;;
53644;SDS011;39547;45.554;12.068;2023-05-07T12:52:48;16.63;;;9.10;;
53644;SDS011;39547;45.554;12.068;2023-05-07T12:58:49;15.25;;;8.40;;
53644;SDS011;39547;45.554;12.068;2023-05-07T13:04:50;15.30;;;8.07;;
53644;SDS011;39547;45.554;12.068;2023-05-07T13:10:53;14.93;;;7.32;;
53644;SDS011;39547;45.554;12.068;2023-05-07T13:16:55;15.68;;;8.48;;
53644;SDS011;39547;45.554;12.068;2023-05-07T13:22:56;13.88;;;6.78;;
53644;SDS011;39547;45.554;12.068;2023-05-07T13:28:58;15.13;;;7.13;;
53644;SDS011;39547;45.554;12.068;2023-05-07T13:34:59;14.25;;;7.47;;
53644;SDS011;39547;45.554;12.068;2023-05-07T13:41:01;13.43;;;6.53;;
53644;SDS011;39547;45.554;12.068;2023-05-07T13:47:02;13.97;;;6.70;;
53644;SDS011;39547;45.554;12.068;2023-05-07T13:53:04;14.02;;;6.95;;
53644;SDS011;39547;45.554;12.068;2023-05-07T13:59:05;12.70;;;5.77;;
53644;SDS011;39547;45.554;12.068;2023-05-07T14:05:07;12.80;;;6.15;;
53644;SDS011;39547;45.554;12.068;2023-05-07T14:11:10;12.57;;;5.20;;
53644;SDS011;39547;45.554;12.068;2023-05-07T14:17:11;11.02;;;4.30;;
53644;SDS011;39547;45.554;12.068;2023-05-07T14:23:13;10.80;;;4.23;;
53644;SDS011;39547;45.554;12.068;2023-05-07T14:29:16;11.57;;;4.20;;
53644;SDS011;39547;45.554;12.068;2023-05-07T14:35:19;11.57;;;4.10;;
53644;SDS011;39547;45.554;12.068;2023-05-07T14:41:21;11.20;;;4.10;;
53644;SDS011;39547;45.554;12.068;2023-05-07T14:47:23;11.82;;;3.97;;
53644;SDS011;39547;45.554;12.068;2023-05-07T14:53:24;11.13;;;3.80;;
53644;SDS011;39547;45.554;12.068;2023-05-07T14:59:26;11.48;;;4.32;;
53644;SDS011;39547;45.554;12.068;2023-05-07T15:05:27;11.63;;;4.13;;
53644;SDS011;39547;45.554;12.068;2023-05-07T15:11:29;11.03;;;3.97;;
53644;SDS011;39547;45.554;12.068;2023-05-07T15:17:30;10.70;;;3.83;;
53644;SDS011;39547;45.554;12.068;2023-05-07T15:23:32;11.95;;;4.40;;
53644;SDS011;39547;45.554;12.068;2023-05-07T15:29:33;11.63;;;4.18;;
53644;SDS011;39547;45.554;12.068;2023-05-07T15:35:36;10.77;;;3.95;;
53644;SDS011;39547;45.554;12.068;2023-05-07T15:41:38;10.90;;;4.05;;
53644;SDS011;39547;45.554;12.068;2023-05-07T15:47:39;11.55;;;4.20;;
53644;SDS011;39547;45.554;12.068;2023-05-07T15:53:41;11.43;;;4.18;;
53644;SDS011;39547;45.554;12.068;2023-05-07T15:59:43;10.88;;;3.90;;
53644;SDS011;39547;45.554;12.068;2023-05-07T16:05:44;11.20;;;4.22;;
53644;SDS011;39547;45.554;12.068;2023-05-07T16:11:46;12.95;;;4.70;;
53644;SDS011;39547;45.554;12.068;2023-05-07T16:17:47;11.80;;;4.38;;
53644;SDS011;39547;45.554;12.068;2023-05-07T16:23:57;11.25;;;4.10;;
53644;SDS011;39547;45.554;12.068;2023-05-07T16:29:58;12.23;;;4.20;;
53644;SDS011;39547;45.554;12.068;2023-05-07T16:36:00;12.50;;;4.10;;
53644;SDS011;39547;45.554;12.068;2023-05-07T16:42:03;11.90;;;4.28;;
53644;SDS011;39547;45.554;12.068;2023-05-07T16:48:04;11.73;;;3.88;;
53644;SDS011;39547;45.554;12.068;2023-05-07T16:54:08;11.55;;;3.78;;
53644;SDS011;39547;45.554;12.068;2023-05-07T17:00:10;11.27;;;3.85;;
53644;SDS011;39547;45.554;12.068;2023-05-07T17:06:12;11.17;;;3.90;;
53644;SDS011;39547;45.554;12.068;2023-05-07T17:12:14;10.98;;;3.97;;
53644;SDS011;39547;45.554;12.068;2023-05-07T17:18:16;12.40;;;4.30;;
53644;SDS011;39547;45.554;12.068;2023-05-07T17:24:17;11.75;;;4.32;;
53644;SDS011;39547;45.554;12.068;2023-05-07T17:30:19;12.38;;;4.20;;
53644;SDS011;39547;45.554;12.068;2023-05-07T17:36:20;11.65;;;4.18;;
53644;SDS011;39547;45.554;12.068;2023-05-07T17:42:22;11.70;;;4.30;;
53644;SDS011;39547;45.554;12.068;2023-05-07T17:48:23;12.23;;;4.40;;
53644;SDS011;39547;45.554;12.068;2023-05-07T17:54:25;11.93;;;4.40;;
53644;SDS011;39547;45.554;12.068;2023-05-07T18:00:27;14.73;;;4.30;;
53644;SDS011;39547;45.554;12.068;2023-05-07T18:06:29;11.52;;;4.38;;
53644;SDS011;39547;45.554;12.068;2023-05-07T18:12:31;11.85;;;4.63;;
53644;SDS011;39547;45.554;12.068;2023-05-07T18:18:33;11.60;;;4.45;;
53644;SDS011;39547;45.554;12.068;2023-05-07T18:24:35;13.07;;;5.00;;
53644;SDS011;39547;45.554;12.068;2023-05-07T18:30:36;12.52;;;4.97;;
53644;SDS011;39547;45.554;12.068;2023-05-07T18:36:38;12.32;;;5.38;;
53644;SDS011;39547;45.554;12.068;2023-05-07T18:42:39;13.23;;;5.40;;
53644;SDS011;39547;45.554;12.068;2023-05-07T18:48:41;12.77;;;5.63;;
53644;SDS011;39547;45.554;12.068;2023-05-07T18:54:42;12.70;;;5.70;;
53644;SDS011;39547;45.554;12.068;2023-05-07T19:00:46;12.88;;;5.40;;
53644;SDS011;39547;45.554;12.068;2023-05-07T19:06:48;13.70;;;6.07;;
53644;SDS011;39547;45.554;12.068;2023-05-07T19:12:49;13.52;;;6.63;;
53644;SDS011;39547;45.554;12.068;2023-05-07T19:18:54;14.63;;;6.72;;
53644;SDS011;39547;45.554;12.068;2023-05-07T19:24:56;14.40;;;6.97;;
53644;SDS011;39547;45.554;12.068;2023-05-07T19:30:57;13.35;;;6.10;;
53644;SDS011;39547;45.554;12.068;2023-05-07T19:36:59;13.63;;;6.38;;
53644;SDS011;39547;45.554;12.068;2023-05-07T19:43:00;15.27;;;6.28;;
53644;SDS011;39547;45.554;12.068;2023-05-07T19:49:02;12.65;;;5.57;;
53644;SDS011;39547;45.554;12.068;2023-05-07T19:55:03;13.00;;;5.43;;
53644;SDS011;39547;45.554;12.068;2023-05-07T20:01:05;12.55;;;5.40;;
53644;SDS011;39547;45.554;12.068;2023-05-07T20:07:07;13.23;;;5.78;;
53644;SDS011;39547;45.554;12.068;2023-05-07T20:13:09;13.20;;;5.75;;
53644;SDS011;39547;45.554;12.068;2023-05-07T20:19:11;13.50;;;5.82;;
53644;SDS011;39547;45.554;12.068;2023-05-07T20:25:12;14.82;;;6.93;;
53644;SDS011;39547;45.554;12.068;2023-05-07T20:31:14;13.77;;;6.28;;
53644;SDS011;39547;45.554;12.068;2023-05-07T20:37:16;14.65;;;7.38;;
53644;SDS011;39547;45.554;12.068;2023-05-07T20:43:17;18.05;;;8.85;;
53644;SDS011;39547;45.554;12.068;2023-05-07T20:49:19;15.60;;;8.20;;
53644;SDS011;39547;45.554;12.068;2023-05-07T20:55:22;16.65;;;8.68;;
53644;SDS011;39547;45.554;12.068;2023-05-07T21:01:24;17.17;;;8.35;;
53644;SDS011;39547;45.554;12.068;2023-05-07T21:07:25;15.13;;;7.57;;
53644;SDS011;39547;45.554;12.068;2023-05-07T21:13:27;16.02;;;8.45;;
53644;SDS011;39547;45.554;12.068;2023-05-07T21:19:28;15.90;;;8.25;;
53644;SDS011;39547;45.554;12.068;2023-05-07T21:25:29;15.82;;;8.20;;
53644;SDS011;39547;45.554;12.068;2023-05-07T21:31:31;16.63;;;8.52;;
53644;SDS011;39547;45.554;12.068;2023-05-07T21:37:32;15.65;;;8.23;;
53644;SDS011;39547;45.554;12.068;2023-05-07T21:43:34;16.52;;;9.15;;
53644;SDS011;39547;45.554;12.068;2023-05-07T21:49:35;14.98;;;7.15;;
53644;SDS011;39547;45.554;12.068;2023-05-07T21:55:36;17.10;;;9.18;;
53644;SDS011;39547;45.554;12.068;2023-05-07T22:01:38;16.38;;;8.38;;
53644;SDS011;39547;45.554;12.068;2023-05-07T22:07:39;16.52;;;8.27;;
53644;SDS011;39547;45.554;12.068;2023-05-07T22:13:41;16.88;;;8.93;;
53644;SDS011;39547;45.554;12.068;2023-05-07T22:19:42;16.90;;;8.60;;
53644;SDS011;39547;45.554;12.068;2023-05-07T22:25:44;15.60;;;8.23;;
53644;SDS011;39547;45.554;12.068;2023-05-07T22:31:45;16.42;;;8.35;;
53644;SDS011;39547;45.554;12.068;2023-05-07T22:37:47;17.38;;;9.23;;
53644;SDS011;39547;45.554;12.068;2023-05-07T22:43:48;19.08;;;10.40;;
53644;SDS011;39547;45.554;12.068;2023-05-07T22:49:50;18.02;;;9.50;;
53644;SDS011;39547;45.554;12.068;2023-05-07T22:55:51;17.38;;;9.43;;
53644;SDS011;39547;45.554;12.068;2023-05-07T23:01:53;19.85;;;11.07;;
53644;SDS011;39547;45.554;12.068;2023-05-07T23:07:55;18.98;;;10.80;;
53644;SDS011;39547;45.554;12.068;2023-05-07T23:13:56;21.27;;;12.50;;
53644;SDS011;39547;45.554;12.068;2023-05-07T23:19:58;19.48;;;11.30;;
53644;SDS011;39547;45.554;12.068;2023-05-07T23:25:59;25.13;;;14.75;;
53644;SDS011;39547;45.554;12.068;2023-05-07T23:32:01;21.83;;;13.02;;
53644;SDS011;39547;45.554;12.068;2023-05-07T23:38:02;19.95;;;11.50;;
53644;SDS011;39547;45.554;12.068;2023-05-07T23:44:04;19.77;;;11.35;;
53644;SDS011;39547;45.554;12.068;2023-05-07T23:50:05;19.70;;;11.13;;
53644;SDS011;39547;45.554;12.068;2023-05-07T23:56:07;21.08;;;12.45;;
